createdAt,value
2019-04-05T00:01:24.649Z,17.57
2019-04-05T00:03:55.549Z,17.03
2019-04-05T00:06:26.523Z,13.87
2019-04-05T00:08:57.423Z,17.23
2019-04-05T00:11:28.455Z,18.70
2019-04-05T00:13:59.353Z,18.97
2019-04-05T00:16:30.275Z,16.70
2019-04-05T00:19:01.176Z,16.87
2019-04-05T00:21:32.117Z,17.40
2019-04-05T00:24:03.015Z,17.07
2019-04-05T00:26:33.964Z,19.17
2019-04-05T00:29:04.849Z,16.53
2019-04-05T00:31:35.776Z,18.80
2019-04-05T00:34:06.691Z,17.50
2019-04-05T00:36:37.797Z,25.00
2019-04-05T00:39:09.563Z,20.47
2019-04-05T00:41:40.503Z,22.60
2019-04-05T00:44:11.406Z,18.00
2019-04-05T00:46:44.678Z,17.27
2019-04-05T00:49:14.937Z,16.77
2019-04-05T00:51:46.681Z,17.30
2019-04-05T00:54:17.583Z,20.10
2019-04-05T00:56:48.518Z,16.03
2019-04-05T00:59:19.475Z,18.57
2019-04-05T01:01:50.619Z,25.23
2019-04-05T01:04:21.530Z,21.03
2019-04-05T01:06:53.312Z,18.50
2019-04-05T01:09:24.218Z,19.10
2019-04-05T01:11:55.145Z,21.17
2019-04-05T01:14:27.650Z,19.27
2019-04-05T01:16:58.569Z,23.30
2019-04-05T01:19:33.169Z,22.83
2019-04-05T01:22:08.963Z,20.83
2019-04-05T01:24:39.980Z,15.43
2019-04-05T01:27:11.423Z,17.90
2019-04-05T01:29:44.223Z,22.23
2019-04-05T01:32:15.157Z,18.60
2019-04-05T01:34:46.069Z,20.03
2019-04-05T01:37:18.715Z,20.80
2019-04-05T01:39:49.625Z,24.47
2019-04-05T01:42:20.621Z,18.83
2019-04-05T01:44:51.998Z,19.73
2019-04-05T01:47:23.039Z,19.63
2019-04-05T01:49:53.933Z,21.57
2019-04-05T01:52:25.756Z,22.77
2019-04-05T01:54:56.645Z,19.60
2019-04-05T01:57:27.571Z,19.97
2019-04-05T01:59:58.545Z,15.40
2019-04-05T02:02:29.475Z,16.70
2019-04-05T02:05:00.377Z,20.17
2019-04-05T02:07:32.707Z,23.00
2019-04-05T02:10:04.716Z,25.47
2019-04-05T02:12:35.743Z,18.53
2019-04-05T02:15:08.365Z,16.03
2019-04-05T02:17:39.289Z,14.80
2019-04-05T02:20:10.907Z,16.93
2019-04-05T02:22:42.673Z,19.47
2019-04-05T02:25:13.653Z,19.33
2019-04-05T02:27:44.583Z,22.17
2019-04-05T02:30:16.422Z,20.90
2019-04-05T02:32:47.334Z,20.30
2019-04-05T02:35:18.237Z,20.37
2019-04-05T02:37:49.230Z,19.07
2019-04-05T02:40:20.229Z,19.37
2019-04-05T02:42:54.097Z,17.40
2019-04-05T02:45:26.933Z,15.03
2019-04-05T02:48:00.781Z,17.70
2019-04-05T02:50:33.942Z,14.63
2019-04-05T02:53:08.656Z,18.10
2019-04-05T02:55:42.313Z,16.00
2019-04-05T02:58:14.120Z,16.70
2019-04-05T03:00:45.729Z,20.30
2019-04-05T03:03:17.450Z,20.27
2019-04-05T03:05:48.582Z,18.83
2019-04-05T03:08:20.225Z,16.90
2019-04-05T03:11:08.519Z,21.90
2019-04-05T03:13:42.377Z,17.20
2019-04-05T03:16:18.843Z,17.67
2019-04-05T03:18:52.677Z,17.80
2019-04-05T03:21:27.233Z,18.57
2019-04-05T03:24:01.042Z,19.73
2019-04-05T03:26:35.189Z,20.77
2019-04-05T03:29:09.029Z,21.50
2019-04-05T03:31:40.452Z,19.07
2019-04-05T03:34:12.868Z,22.73
2019-04-05T03:36:43.965Z,24.17
2019-04-05T03:39:16.368Z,18.03
2019-04-05T03:41:47.489Z,24.27
2019-04-05T03:44:22.673Z,17.03
2019-04-05T03:46:56.785Z,24.97
2019-04-05T03:49:24.375Z,24.73
2019-04-05T03:51:55.409Z,25.17
2019-04-05T03:54:27.350Z,32.13
2019-04-05T03:56:58.996Z,23.70
2019-04-05T03:59:30.044Z,19.10
2019-04-05T04:02:00.986Z,23.93
2019-04-05T04:04:32.051Z,21.40
2019-04-05T04:07:03.121Z,17.30
2019-04-05T04:09:34.209Z,22.47
2019-04-05T04:12:05.504Z,16.90
2019-04-05T04:14:37.823Z,21.17
2019-04-05T04:17:12.781Z,21.37
2019-04-05T04:19:41.711Z,23.33
2019-04-05T04:22:22.366Z,20.27
2019-04-05T04:24:54.261Z,22.93
2019-04-05T04:27:25.262Z,22.73
2019-04-05T04:30:00.353Z,19.83
2019-04-05T04:32:30.101Z,23.13
2019-04-05T04:35:02.145Z,19.20
2019-04-05T04:37:33.147Z,21.00
2019-04-05T04:40:07.021Z,23.93
2019-04-05T04:42:37.914Z,16.60
2019-04-05T04:45:12.576Z,21.57
2019-04-05T04:47:41.750Z,17.93
2019-04-05T04:50:13.064Z,21.13
2019-04-05T04:52:44.679Z,23.60
2019-04-05T04:55:16.064Z,17.17
2019-04-05T04:57:47.675Z,18.47
2019-04-05T05:00:18.893Z,22.37
2019-04-05T05:02:49.805Z,21.80
2019-04-05T05:05:20.820Z,22.17
2019-04-05T05:07:51.824Z,17.37
2019-04-05T05:10:22.872Z,27.30
2019-04-05T05:12:53.962Z,25.13
2019-04-05T05:15:27.163Z,19.60
2019-04-05T05:17:58.839Z,20.93
2019-04-05T05:20:30.109Z,23.37
2019-04-05T05:23:02.599Z,22.53
2019-04-05T05:25:35.048Z,17.07
2019-04-05T05:28:06.145Z,18.83
2019-04-05T05:30:37.079Z,20.13
2019-04-05T05:33:07.991Z,22.47
2019-04-05T05:35:38.926Z,20.50
2019-04-05T05:38:09.840Z,22.50
2019-04-05T05:40:40.838Z,18.93
2019-04-05T05:43:11.747Z,16.40
2019-04-05T05:45:42.680Z,19.20
2019-04-05T05:48:13.996Z,18.23
2019-04-05T05:50:45.234Z,15.20
2019-04-05T05:53:16.147Z,18.53
2019-04-05T05:55:47.232Z,17.83
2019-04-05T05:58:18.144Z,18.20
2019-04-05T06:00:49.097Z,24.17
2019-04-05T06:03:20.009Z,26.73
2019-04-05T06:05:58.339Z,27.37
2019-04-05T06:08:23.565Z,22.60
2019-04-05T06:10:54.528Z,21.80
2019-04-05T06:13:25.444Z,19.07
2019-04-05T06:15:56.489Z,22.03
2019-04-05T06:18:27.404Z,19.50
2019-04-05T06:20:58.360Z,18.30
2019-04-05T06:23:33.838Z,15.60
2019-04-05T06:26:04.379Z,23.73
2019-04-05T06:28:35.322Z,17.43
2019-04-05T06:31:06.298Z,19.27
2019-04-05T06:33:37.212Z,22.17
2019-04-05T06:36:08.175Z,20.30
2019-04-05T06:38:39.136Z,16.67
2019-04-05T06:41:10.034Z,16.43
2019-04-05T06:43:41.890Z,23.37
2019-04-05T06:46:12.802Z,17.37
2019-04-05T06:48:43.865Z,19.32
2019-04-05T06:51:14.905Z,19.27
2019-04-05T06:53:48.877Z,16.30
2019-04-05T06:56:25.140Z,18.85
2019-04-05T06:59:00.265Z,15.45
2019-04-05T07:01:32.959Z,14.03
2019-04-05T07:07:19.907Z,14.27
2019-04-05T07:09:55.487Z,11.73
2019-04-05T07:12:29.211Z,16.17
2019-04-05T07:15:18.175Z,16.48
2019-04-05T07:17:56.278Z,16.67
2019-04-05T07:20:27.337Z,12.50
2019-04-05T07:23:03.759Z,17.27
2019-04-05T07:25:36.973Z,17.17
2019-04-05T07:28:14.689Z,14.33
2019-04-05T07:30:56.222Z,17.77
2019-04-05T07:33:33.585Z,12.30
2019-04-05T07:36:04.657Z,15.30
2019-04-05T07:38:36.090Z,15.28
2019-04-05T07:41:09.538Z,15.03
2019-04-05T07:43:50.419Z,18.48
2019-04-05T07:46:30.027Z,15.40
2019-04-05T07:49:08.138Z,14.40
2019-04-05T07:51:42.318Z,19.60
2019-04-05T07:54:13.963Z,13.05
2019-04-05T07:56:46.320Z,15.72
2019-04-05T07:59:21.564Z,12.98
2019-04-05T08:01:59.171Z,16.82
2019-04-05T08:04:33.864Z,14.38
2019-04-05T08:07:07.442Z,19.87
2019-04-05T08:09:39.828Z,15.10
2019-04-05T08:12:10.813Z,18.93
2019-04-05T08:14:43.868Z,18.70
2019-04-05T08:17:22.106Z,18.12
2019-04-05T08:20:03.547Z,16.55
2019-04-05T08:22:38.133Z,12.78
2019-04-05T08:25:35.410Z,15.48
2019-04-05T08:28:10.561Z,13.08
2019-04-05T08:30:43.698Z,17.50
2019-04-05T08:33:16.390Z,18.00
2019-04-05T08:35:47.422Z,12.43
2019-04-05T08:38:18.493Z,14.95
2019-04-05T08:40:52.445Z,15.08
2019-04-05T08:43:23.474Z,18.05
2019-04-05T08:45:54.386Z,16.67
2019-04-05T08:48:26.163Z,17.30
2019-04-05T08:50:57.087Z,16.17
2019-04-05T08:53:28.034Z,15.05
2019-04-05T08:55:58.965Z,14.85
2019-04-05T08:58:33.647Z,15.95
2019-04-05T09:01:02.518Z,15.80
2019-04-05T09:03:34.349Z,12.30
2019-04-05T09:06:05.260Z,18.73
2019-04-05T09:08:36.199Z,16.17
2019-04-05T09:11:07.105Z,18.52
2019-04-05T09:13:38.065Z,18.65
2019-04-05T09:16:11.571Z,15.05
2019-04-05T09:18:42.544Z,19.82
2019-04-05T09:21:13.458Z,22.20
2019-04-05T09:23:44.394Z,15.60
2019-04-05T09:26:16.165Z,16.75
2019-04-05T09:28:47.119Z,17.23
2019-04-05T09:31:18.028Z,15.45
2019-04-05T09:33:49.815Z,14.18
2019-04-05T09:36:20.739Z,13.75
2019-04-05T09:38:51.705Z,16.67
2019-04-05T09:41:22.622Z,17.32
2019-04-05T09:43:53.630Z,13.98
2019-04-05T09:46:24.554Z,19.80
2019-04-05T09:48:56.373Z,15.40
2019-04-05T09:51:27.457Z,17.37
2019-04-05T09:54:00.019Z,17.73
2019-04-05T09:56:31.189Z,18.87
2019-04-05T09:59:02.179Z,8.97
2019-04-05T10:01:33.348Z,15.03
2019-04-05T10:04:05.473Z,17.65
2019-04-05T10:06:36.499Z,17.57
2019-04-05T10:09:09.033Z,13.95
2019-04-05T10:11:39.967Z,13.70
2019-04-05T10:14:10.995Z,16.93
2019-04-05T10:16:41.952Z,18.60
2019-04-05T10:19:13.079Z,18.67
2019-04-05T10:21:44.140Z,18.07
2019-04-05T10:24:15.175Z,20.65
2019-04-05T10:26:47.336Z,18.32
2019-04-05T10:29:18.607Z,15.48
2019-04-05T10:31:49.563Z,16.48
2019-04-05T10:34:20.776Z,15.27
2019-04-05T10:36:51.761Z,19.17
2019-04-05T10:39:22.701Z,16.62
2019-04-05T10:42:03.488Z,13.80
2019-04-05T10:44:26.384Z,18.67
2019-04-05T10:46:57.424Z,17.95
2019-04-05T10:49:30.224Z,14.40
2019-04-05T10:52:01.174Z,14.78
2019-04-05T10:54:32.138Z,20.20
2019-04-05T10:57:03.199Z,13.20
2019-04-05T10:59:34.226Z,16.77
2019-04-05T11:02:05.149Z,22.65
2019-04-05T11:04:36.096Z,38.95
2019-04-05T11:07:07.022Z,16.15
2019-04-05T11:09:38.032Z,18.62
2019-04-05T11:12:09.731Z,15.50
2019-04-05T11:14:40.805Z,16.67
2019-04-05T11:17:11.818Z,16.07
2019-04-05T11:19:43.973Z,19.52
2019-04-05T11:22:15.020Z,18.32
2019-04-05T11:24:46.050Z,17.95
2019-04-05T11:27:17.969Z,11.25
2019-04-05T11:29:48.955Z,10.25
2019-04-05T11:32:19.954Z,18.75
2019-04-05T11:34:50.959Z,19.55
2019-04-05T11:37:22.262Z,16.15
2019-04-05T11:39:53.530Z,13.98
2019-04-05T11:42:26.340Z,16.10
2019-04-05T11:44:58.758Z,16.45
2019-04-05T11:47:30.888Z,15.85
2019-04-05T11:50:05.539Z,18.75
2019-04-05T11:52:36.553Z,16.67
2019-04-05T11:55:08.289Z,17.67
2019-04-05T11:57:41.443Z,17.95
2019-04-05T12:00:15.514Z,17.92
2019-04-05T12:02:51.253Z,20.32
2019-04-05T12:05:26.840Z,21.17
2019-04-05T12:08:01.031Z,22.15
2019-04-05T12:10:31.876Z,22.02
2019-04-05T12:13:01.713Z,22.05
2019-04-05T12:15:33.525Z,17.35
2019-04-05T12:18:05.670Z,15.80
2019-04-05T12:20:47.858Z,23.42
2019-04-05T12:23:10.153Z,16.37
2019-04-05T12:25:41.091Z,19.80
2019-04-05T12:28:12.845Z,13.28
2019-04-05T12:30:46.079Z,18.70
2019-04-05T12:33:19.645Z,17.37
2019-04-05T12:35:53.019Z,14.85
2019-04-05T12:38:35.984Z,20.88
2019-04-05T12:41:11.108Z,18.15
2019-04-05T12:43:44.020Z,17.20
2019-04-05T12:46:16.115Z,14.63
2019-04-05T12:48:52.217Z,17.32
2019-04-05T12:51:23.319Z,19.05
2019-04-05T12:53:56.411Z,17.92
2019-04-05T12:56:27.249Z,22.17
2019-04-05T12:58:58.617Z,18.67
2019-04-05T13:01:29.589Z,19.87
2019-04-05T13:04:00.627Z,25.43
2019-04-05T13:06:32.470Z,20.60
2019-04-05T13:09:05.661Z,20.55
2019-04-05T13:11:36.625Z,19.35
2019-04-05T13:14:07.723Z,21.33
2019-04-05T13:16:38.696Z,14.83
2019-04-05T13:19:09.680Z,22.07
2019-04-05T13:21:40.795Z,14.25
2019-04-05T13:24:14.423Z,18.50
2019-04-05T13:26:45.444Z,18.25
2019-04-05T13:29:19.756Z,17.62
2019-04-05T13:31:50.720Z,19.42
2019-04-05T13:34:25.605Z,23.00
2019-04-05T13:36:55.264Z,16.48
2019-04-05T13:39:27.535Z,22.15
2019-04-05T13:42:01.305Z,15.95
2019-04-05T13:44:32.429Z,18.07
2019-04-05T13:47:03.533Z,17.67
2019-04-05T13:49:34.501Z,19.45
2019-04-05T13:52:06.819Z,15.88
2019-04-05T13:54:38.294Z,19.12
2019-04-05T13:57:11.549Z,19.37
2019-04-05T13:59:44.689Z,21.75
2019-04-05T14:02:15.435Z,18.87
2019-04-05T14:04:46.579Z,21.87
2019-04-05T14:07:18.631Z,17.73
2019-04-05T14:09:49.578Z,18.07
2019-04-05T14:12:20.535Z,16.35
2019-04-05T14:14:51.869Z,23.85
2019-04-05T14:17:23.199Z,20.40
2019-04-05T14:19:54.261Z,22.62
2019-04-05T14:22:26.355Z,22.60
2019-04-05T14:24:57.720Z,22.77
2019-04-05T14:27:28.697Z,16.95
2019-04-05T14:30:02.359Z,19.35
2019-04-05T14:32:32.897Z,22.85
2019-04-05T14:35:08.015Z,17.65
2019-04-05T14:37:47.135Z,17.90
2019-04-05T14:40:23.590Z,20.80
2019-04-05T14:42:57.007Z,21.65
2019-04-05T14:45:29.493Z,20.57
2019-04-05T14:48:05.235Z,18.02
2019-04-05T14:50:42.795Z,18.10
2019-04-05T14:53:14.695Z,21.73
2019-04-05T14:55:45.700Z,20.17
2019-04-05T14:58:19.138Z,20.45
2019-04-05T15:00:49.675Z,17.07
2019-04-05T15:03:20.672Z,14.63
2019-04-05T15:05:51.613Z,19.73
2019-04-05T15:08:23.449Z,15.38
2019-04-05T15:10:56.867Z,16.82
2019-04-05T15:13:27.462Z,19.98
2019-04-05T15:15:58.507Z,18.05
2019-04-05T15:18:29.643Z,27.48
2019-04-05T15:21:00.716Z,24.20
2019-04-05T15:23:32.617Z,21.55
2019-04-05T15:26:03.582Z,21.82
2019-04-05T15:28:34.608Z,22.80
2019-04-05T15:31:06.367Z,23.20
2019-04-05T15:33:37.539Z,22.35
2019-04-05T15:36:08.496Z,21.45
2019-04-05T15:38:41.758Z,21.57
2019-04-05T15:41:12.679Z,24.47
2019-04-05T15:43:43.617Z,23.50
2019-04-05T15:46:15.486Z,22.27
2019-04-05T15:48:46.450Z,24.25
2019-04-05T15:51:17.677Z,18.17
2019-04-05T15:53:48.655Z,24.67
2019-04-05T15:56:19.559Z,20.90
2019-04-05T15:58:52.395Z,22.80
2019-04-05T16:01:23.234Z,23.10
2019-04-05T16:03:54.287Z,20.00
2019-04-05T16:06:25.270Z,21.25
2019-04-05T16:08:57.067Z,20.12
2019-04-05T16:11:28.051Z,20.60
2019-04-05T16:13:59.107Z,21.77
2019-04-05T16:16:30.220Z,41.00
2019-04-05T16:19:01.315Z,204.82
2019-04-05T16:21:32.800Z,65.47
2019-04-05T16:24:04.984Z,71.92
2019-04-05T16:26:36.001Z,28.38
2019-04-05T16:29:06.974Z,26.48
2019-04-05T16:31:43.988Z,27.45
2019-04-05T16:34:15.120Z,26.07
2019-04-05T16:36:46.057Z,24.92
2019-04-05T16:39:18.544Z,30.60
2019-04-05T16:41:58.970Z,27.62
2019-04-05T16:44:29.942Z,27.70
2019-04-05T16:47:00.888Z,31.17
2019-04-05T16:49:31.936Z,137.72
2019-04-05T16:52:02.901Z,113.12
2019-04-05T16:54:34.617Z,112.52
2019-04-05T16:57:06.117Z,59.65
2019-04-05T16:59:37.403Z,73.57
2019-04-05T17:02:08.628Z,55.45
2019-04-05T17:04:39.589Z,64.55
2019-04-05T17:07:10.548Z,185.12
2019-04-05T17:09:41.687Z,129.97
2019-04-05T17:12:12.649Z,86.40
2019-04-05T17:14:43.718Z,85.03
2019-04-05T17:17:14.829Z,189.72
2019-04-05T17:19:45.838Z,137.03
2019-04-05T17:22:16.795Z,95.92
2019-04-05T17:24:49.021Z,74.07
2019-04-05T17:27:19.953Z,54.13
2019-04-05T17:29:51.024Z,116.67
2019-04-05T17:32:22.762Z,97.30
2019-04-05T17:34:54.006Z,97.05
2019-04-05T17:37:26.608Z,79.58
2019-04-05T17:39:58.674Z,115.42
2019-04-05T17:42:29.619Z,84.75
2019-04-05T17:45:00.566Z,97.45
2019-04-05T17:47:31.482Z,106.72
2019-04-05T17:50:02.646Z,116.03
2019-04-05T17:52:33.637Z,109.67
2019-04-05T17:55:05.126Z,106.90
2019-04-05T17:57:36.146Z,129.75
2019-04-05T18:00:09.873Z,108.42
2019-04-05T18:02:40.790Z,46.30
2019-04-05T18:05:11.735Z,63.60
2019-04-05T18:07:42.978Z,421.27
2019-04-05T18:10:14.149Z,141.40
2019-04-05T18:12:45.059Z,130.30
2019-04-05T18:15:16.088Z,156.60
2019-04-05T18:17:47.114Z,101.23
2019-04-05T18:20:18.062Z,73.28
2019-04-05T18:22:48.974Z,85.38
2019-04-05T18:25:20.826Z,58.33
2019-04-05T18:27:51.754Z,61.90
2019-04-05T18:30:22.755Z,109.60
2019-04-05T18:32:54.551Z,46.63
2019-04-05T18:35:25.503Z,68.95
2019-04-05T18:37:56.417Z,37.88
2019-04-05T18:40:39.444Z,35.78
2019-04-05T18:43:01.668Z,32.48
2019-04-05T18:45:33.681Z,32.85
2019-04-05T18:48:05.732Z,28.40
2019-04-05T18:50:37.340Z,32.03
2019-04-05T18:53:08.564Z,32.93
2019-04-05T18:55:40.590Z,38.93
2019-04-05T18:58:11.516Z,39.73
2019-04-05T19:00:42.441Z,32.63
2019-04-05T19:03:13.356Z,32.03
2019-04-05T19:05:44.381Z,31.43
2019-04-05T19:08:15.299Z,30.50
2019-04-05T19:10:47.071Z,29.47
2019-04-05T19:13:17.992Z,28.17
2019-04-05T19:15:48.928Z,38.73
2019-04-05T19:18:40.941Z,27.77
2019-04-05T19:21:11.991Z,35.10
2019-04-05T19:23:50.811Z,31.53
2019-04-05T19:26:16.381Z,25.27
2019-04-05T19:28:47.384Z,25.00
2019-04-05T19:49:10.135Z,29.33
2019-04-05T19:51:41.222Z,31.13
2019-04-05T19:54:12.128Z,28.60
2019-04-05T19:56:43.190Z,34.07
2019-04-05T19:59:14.128Z,35.47
2019-04-05T20:01:46.144Z,31.83
2019-04-05T20:04:17.057Z,38.63
2019-04-05T20:06:57.914Z,37.23
2019-04-05T20:09:21.241Z,51.43
2019-04-05T20:11:54.816Z,52.77
2019-04-05T20:14:25.737Z,55.07
2019-04-05T20:16:56.793Z,47.90
2019-04-05T20:19:27.676Z,47.67
2019-04-05T20:21:59.299Z,52.43
2019-04-05T20:24:31.013Z,45.88
2019-04-05T20:27:03.086Z,45.75
2019-04-05T20:29:34.129Z,59.70
2019-04-05T20:32:06.041Z,38.83
2019-04-05T20:34:37.757Z,35.07
2019-04-05T20:37:08.738Z,31.97
2019-04-05T20:39:39.668Z,36.17
2019-04-05T20:42:11.613Z,39.03
2019-04-05T20:44:42.566Z,36.80
2019-04-05T20:47:13.555Z,43.63
2019-04-05T20:49:44.578Z,50.10
2019-04-05T20:52:15.568Z,46.37
2019-04-05T20:54:46.490Z,50.33
2019-04-05T20:57:19.169Z,35.07
2019-04-05T20:59:50.103Z,32.43
2019-04-05T21:02:21.052Z,33.40
2019-04-05T21:04:51.986Z,30.17
2019-04-05T21:07:22.990Z,27.97
2019-04-05T21:09:54.045Z,27.80
2019-04-05T21:12:25.969Z,30.83
2019-04-05T21:14:56.937Z,21.13
2019-04-05T21:17:27.924Z,29.07
2019-04-05T21:19:58.855Z,32.33
2019-04-05T21:22:29.823Z,29.93
2019-04-05T21:25:02.456Z,26.33
2019-04-05T21:27:33.439Z,34.67
2019-04-05T21:30:06.502Z,40.77
2019-04-05T21:32:37.470Z,29.20
2019-04-05T21:35:09.331Z,33.63
2019-04-05T21:37:40.406Z,27.53
2019-04-05T21:40:11.371Z,30.17
2019-04-05T21:42:43.246Z,22.10
2019-04-05T21:45:14.204Z,24.80
2019-04-05T21:47:45.243Z,23.57
2019-04-05T21:50:16.253Z,26.10
2019-04-05T21:52:47.221Z,24.27
2019-04-05T21:55:18.242Z,24.47
2019-04-05T21:57:49.241Z,23.37
2019-04-05T22:00:33.679Z,26.27
2019-04-05T22:03:04.624Z,25.30
2019-04-05T22:05:35.526Z,29.93
2019-04-05T22:08:06.471Z,16.60
2019-04-05T22:10:37.391Z,22.47
2019-04-05T22:13:09.139Z,22.37
2019-04-05T22:15:40.054Z,27.40
2019-04-05T22:18:10.993Z,23.57
2019-04-05T22:20:41.899Z,29.13
2019-04-05T22:23:12.837Z,21.27
2019-04-05T22:25:43.795Z,26.03
2019-04-05T22:28:14.856Z,24.57
2019-04-05T22:30:45.765Z,23.23
2019-04-05T22:33:16.697Z,20.90
2019-04-05T22:35:48.512Z,25.27
2019-04-05T22:38:19.409Z,19.27
2019-04-05T22:40:52.805Z,22.43
2019-04-05T22:43:23.725Z,24.97
2019-04-05T22:45:55.489Z,22.93
2019-04-05T22:48:26.469Z,52.87
2019-04-05T22:50:57.416Z,124.70
2019-04-05T22:53:28.418Z,59.10
2019-04-05T22:55:59.315Z,57.27
2019-04-05T22:58:30.224Z,44.37
2019-04-05T23:01:02.000Z,35.90
2019-04-05T23:03:32.901Z,25.77
2019-04-05T23:06:03.829Z,24.93
2019-04-05T23:08:34.717Z,22.70
2019-04-05T23:11:05.657Z,20.03
2019-04-05T23:13:36.555Z,19.60
2019-04-05T23:16:08.555Z,16.50
2019-04-05T23:18:39.473Z,24.57
2019-04-05T23:21:10.389Z,20.53
2019-04-05T23:23:41.298Z,14.90
2019-04-05T23:26:12.241Z,20.77
2019-04-05T23:28:43.137Z,18.43
2019-04-05T23:31:14.235Z,20.03
2019-04-05T23:33:45.214Z,16.97
2019-04-05T23:36:16.153Z,18.87
2019-04-05T23:38:47.070Z,17.37
2019-04-05T23:41:17.996Z,17.57
2019-04-05T23:43:48.899Z,19.63
2019-04-05T23:46:20.738Z,19.33
2019-04-05T23:48:51.638Z,15.83
2019-04-05T23:51:22.563Z,16.47
2019-04-05T23:53:53.467Z,15.70
2019-04-05T23:56:24.398Z,18.20
2019-04-05T23:58:55.316Z,19.13
